createdAt,value
2019-03-22T00:03:34.029Z,6.92
2019-03-22T00:08:56.091Z,6.91
2019-03-22T00:14:20.138Z,6.71
2019-03-22T00:19:43.528Z,6.59
2019-03-22T00:25:06.407Z,6.33
2019-03-22T00:30:29.460Z,6.06
2019-03-22T00:35:51.046Z,5.96
2019-03-22T00:41:13.656Z,5.89
2019-03-22T00:46:35.566Z,5.67
2019-03-22T00:51:57.561Z,5.51
2019-03-22T00:57:28.402Z,5.38
2019-03-22T01:02:44.048Z,5.34
2019-03-22T01:08:06.464Z,5.33
2019-03-22T01:13:29.203Z,5.16
2019-03-22T01:18:51.174Z,5.07
2019-03-22T01:24:13.226Z,5.03
2019-03-22T01:29:36.050Z,4.76
2019-03-22T01:34:57.741Z,4.73
2019-03-22T01:40:19.632Z,4.73
2019-03-22T01:45:41.541Z,4.58
2019-03-22T01:51:04.259Z,4.69
2019-03-22T01:56:26.915Z,4.51
2019-03-22T02:01:50.662Z,4.44
2019-03-22T02:07:12.900Z,4.47
2019-03-22T02:12:39.351Z,4.33
2019-03-22T02:18:02.262Z,4.43
2019-03-22T02:23:23.947Z,4.43
2019-03-22T02:28:46.541Z,4.33
2019-03-22T02:34:09.384Z,4.37
2019-03-22T02:39:33.227Z,4.44
2019-03-22T02:44:55.852Z,4.43
2019-03-22T02:50:20.542Z,4.48
2019-03-22T02:55:43.153Z,4.55
2019-03-22T03:01:06.616Z,4.49
2019-03-22T03:06:29.149Z,4.43
2019-03-22T03:11:50.902Z,4.31
2019-03-22T03:17:15.463Z,4.22
2019-03-22T03:22:38.195Z,4.26
2019-03-22T03:27:59.799Z,4.34
2019-03-22T03:33:22.466Z,4.38
2019-03-22T03:38:45.383Z,4.58
2019-03-22T03:44:08.133Z,4.90
2019-03-22T03:49:32.990Z,4.80
2019-03-22T03:54:55.638Z,4.92
2019-03-22T04:00:18.004Z,4.89
2019-03-22T04:05:41.327Z,4.89
2019-03-22T04:11:03.492Z,4.87
2019-03-22T04:16:26.518Z,4.79
2019-03-22T04:21:49.872Z,4.75
2019-03-22T04:27:11.526Z,4.74
2019-03-22T04:32:34.395Z,4.67
2019-03-22T04:37:56.162Z,4.55
2019-03-22T04:43:18.879Z,4.53
2019-03-22T04:48:43.252Z,4.50
2019-03-22T04:54:07.163Z,4.56
2019-03-22T04:59:31.548Z,4.61
2019-03-22T05:04:54.034Z,4.75
2019-03-22T05:10:18.280Z,4.82
2019-03-22T05:15:40.126Z,5.02
2019-03-22T05:21:05.592Z,5.16
2019-03-22T05:26:30.993Z,5.32
2019-03-22T05:32:04.665Z,5.63
2019-03-22T05:37:26.898Z,5.84
2019-03-22T05:42:49.012Z,6.03
2019-03-22T05:48:10.610Z,6.28
2019-03-22T05:53:32.312Z,6.50
2019-03-22T05:58:53.945Z,6.80
2019-03-22T06:04:15.597Z,6.96
2019-03-22T06:09:37.712Z,7.22
2019-03-22T06:14:59.228Z,7.39
2019-03-22T06:20:22.111Z,7.61
2019-03-22T06:25:43.818Z,7.86
2019-03-22T06:31:05.630Z,8.15
2019-03-22T06:36:27.806Z,8.42
2019-03-22T06:41:49.666Z,8.62
2019-03-22T06:47:11.383Z,8.92
2019-03-22T06:52:33.186Z,9.07
2019-03-22T06:57:54.933Z,9.34
2019-03-22T07:03:16.769Z,9.48
2019-03-22T07:08:38.418Z,9.76
2019-03-22T07:14:00.306Z,9.69
2019-03-22T07:19:21.680Z,9.76
2019-03-22T07:24:43.583Z,9.91
2019-03-22T07:30:17.656Z,9.98
2019-03-22T07:35:29.998Z,10.20
2019-03-22T07:40:52.725Z,10.25
2019-03-22T07:46:14.420Z,10.34
2019-03-22T07:51:36.130Z,10.47
2019-03-22T07:56:57.842Z,10.50
2019-03-22T08:02:19.544Z,11.15
2019-03-22T08:07:41.172Z,11.43
2019-03-22T08:13:03.117Z,11.35
2019-03-22T08:18:25.111Z,11.49
2019-03-22T08:23:46.956Z,11.64
2019-03-22T08:29:08.797Z,11.92
2019-03-22T08:34:30.505Z,12.22
2019-03-22T08:39:52.264Z,12.54
2019-03-22T08:45:14.583Z,12.78
2019-03-22T08:50:36.269Z,13.11
2019-03-22T08:55:57.906Z,13.02
2019-03-22T09:01:19.302Z,13.22
2019-03-22T09:06:41.347Z,13.33
2019-03-22T09:12:03.150Z,13.70
2019-03-22T09:17:25.089Z,13.91
2019-03-22T09:22:46.797Z,14.23
2019-03-22T09:28:10.363Z,14.62
2019-03-22T09:33:32.440Z,14.76
2019-03-22T09:38:54.172Z,14.58
2019-03-22T09:44:16.152Z,14.53
2019-03-22T09:49:37.940Z,14.05
2019-03-22T09:55:12.825Z,14.22
2019-03-22T10:00:31.263Z,14.39
2019-03-22T10:05:52.745Z,14.62
2019-03-22T10:11:14.752Z,14.26
2019-03-22T10:16:36.669Z,14.61
2019-03-22T10:21:58.989Z,14.48
2019-03-22T10:27:20.690Z,14.82
2019-03-22T10:32:42.631Z,14.91
2019-03-22T10:38:06.323Z,15.19
2019-03-22T10:43:27.902Z,15.37
2019-03-22T10:48:49.778Z,15.53
2019-03-22T10:54:11.552Z,15.86
2019-03-22T10:59:33.272Z,16.09
2019-03-22T11:04:54.965Z,15.37
2019-03-22T11:10:16.850Z,15.55
2019-03-22T11:15:47.922Z,15.59
2019-03-22T11:21:05.450Z,15.83
2019-03-22T11:26:25.918Z,16.41
2019-03-22T11:31:47.954Z,16.43
2019-03-22T11:37:09.545Z,15.82
2019-03-22T11:42:31.160Z,16.35
2019-03-22T11:47:53.227Z,16.55
2019-03-22T11:53:14.760Z,16.75
2019-03-22T11:58:36.499Z,16.78
2019-03-22T12:03:58.268Z,16.72
2019-03-22T12:09:20.142Z,16.67
2019-03-22T12:14:42.159Z,16.79
2019-03-22T12:20:06.263Z,16.96
2019-03-22T12:25:27.806Z,17.02
2019-03-22T12:30:49.510Z,17.19
2019-03-22T12:36:10.985Z,17.14
2019-03-22T12:41:33.050Z,16.61
2019-03-22T12:46:54.723Z,16.94
2019-03-22T12:52:16.394Z,17.17
2019-03-22T12:57:41.086Z,17.16
2019-03-22T13:03:03.353Z,17.23
2019-03-22T13:08:28.319Z,17.07
2019-03-22T13:13:50.445Z,16.96
2019-03-22T13:19:12.443Z,17.16
2019-03-22T13:24:34.366Z,17.23
2019-03-22T13:29:58.226Z,17.52
2019-03-22T13:35:20.239Z,17.54
2019-03-22T13:40:42.496Z,17.82
2019-03-22T13:46:04.458Z,17.81
2019-03-22T13:51:26.263Z,17.95
2019-03-22T13:56:48.284Z,17.46
2019-03-22T14:02:09.783Z,17.59
2019-03-22T14:07:31.757Z,17.65
2019-03-22T14:12:53.777Z,17.95
2019-03-22T14:18:15.831Z,17.81
2019-03-22T14:23:38.138Z,17.54
2019-03-22T14:28:59.802Z,17.32
2019-03-22T14:34:22.049Z,17.19
2019-03-22T14:39:43.659Z,17.05
2019-03-22T14:45:05.281Z,16.75
2019-03-22T14:50:26.853Z,16.61
2019-03-22T14:55:48.556Z,16.45
2019-03-22T15:01:10.270Z,16.48
2019-03-22T15:06:33.296Z,16.32
2019-03-22T15:11:54.952Z,15.82
2019-03-22T15:17:54.340Z,15.93
2019-03-22T15:23:36.365Z,15.82
2019-03-22T15:29:18.061Z,15.71
2019-03-22T15:34:59.573Z,15.58
2019-03-22T15:40:21.264Z,15.57
2019-03-22T15:45:43.135Z,15.22
2019-03-22T15:51:04.603Z,15.07
2019-03-22T15:56:26.201Z,14.86
2019-03-22T16:01:48.312Z,14.79
2019-03-22T16:07:09.826Z,14.66
2019-03-22T16:12:31.586Z,14.79
2019-03-22T16:17:53.163Z,14.77
2019-03-22T16:23:14.965Z,14.40
2019-03-22T16:28:36.815Z,14.09
2019-03-22T16:33:58.512Z,13.81
2019-03-22T16:39:20.251Z,13.70
2019-03-22T16:44:42.305Z,13.37
2019-03-22T16:50:09.375Z,13.24
2019-03-22T16:55:31.109Z,13.18
2019-03-22T17:00:52.981Z,12.99
2019-03-22T17:06:14.607Z,12.81
2019-03-22T17:11:36.891Z,12.82
2019-03-22T17:16:58.761Z,12.88
2019-03-22T17:22:20.458Z,13.07
2019-03-22T17:27:42.208Z,13.45
2019-03-22T17:33:04.478Z,13.48
2019-03-22T17:38:26.106Z,13.35
2019-03-22T17:43:49.163Z,13.07
2019-03-22T17:49:10.875Z,13.10
2019-03-22T17:54:33.112Z,13.07
2019-03-22T17:59:54.829Z,12.66
2019-03-22T18:05:16.759Z,12.52
2019-03-22T18:10:38.288Z,12.83
2019-03-22T18:16:00.076Z,13.06
2019-03-22T18:21:22.018Z,13.35
2019-03-22T18:26:43.851Z,13.45
2019-03-22T18:32:05.874Z,13.23
2019-03-22T18:37:27.828Z,13.24
2019-03-22T18:42:49.665Z,13.21
2019-03-22T18:48:11.339Z,12.92
2019-03-22T18:53:33.134Z,12.39
2019-03-22T18:58:54.538Z,11.82
2019-03-22T19:04:16.262Z,11.58
2019-03-22T19:09:38.346Z,11.41
2019-03-22T19:15:00.381Z,11.32
2019-03-22T19:20:22.541Z,11.39
2019-03-22T19:25:44.610Z,11.21
2019-03-22T19:31:07.054Z,11.15
2019-03-22T19:36:29.381Z,10.83
2019-03-22T19:41:51.181Z,10.55
2019-03-22T19:47:13.453Z,10.37
2019-03-22T19:52:35.485Z,10.16
2019-03-22T19:57:57.816Z,10.06
2019-03-22T20:03:19.913Z,10.07
2019-03-22T20:08:41.863Z,9.94
2019-03-22T20:14:03.532Z,9.76
2019-03-22T20:19:25.710Z,9.65
2019-03-22T20:24:49.149Z,9.52
2019-03-22T20:30:12.741Z,9.44
2019-03-22T20:35:35.695Z,9.45
2019-03-22T20:40:59.854Z,9.37
2019-03-22T20:46:21.730Z,9.20
2019-03-22T20:51:43.712Z,9.24
2019-03-22T20:57:05.572Z,9.24
2019-03-22T21:02:27.247Z,9.07
2019-03-22T21:07:53.129Z,9.14
2019-03-22T21:13:15.037Z,8.97
2019-03-22T21:18:36.548Z,8.85
2019-03-22T21:23:59.315Z,8.83
2019-03-22T21:29:21.203Z,8.61
2019-03-22T21:34:44.114Z,8.47
2019-03-22T21:40:06.880Z,8.46
2019-03-22T21:45:29.400Z,8.54
2019-03-22T21:50:51.038Z,8.49
2019-03-22T21:56:12.814Z,8.46
2019-03-22T22:01:34.601Z,8.50
2019-03-22T22:06:56.474Z,8.33
2019-03-22T22:12:18.126Z,8.32
2019-03-22T22:17:40.199Z,8.26
2019-03-22T22:23:02.252Z,8.18
2019-03-22T22:28:23.683Z,8.37
2019-03-22T22:33:47.796Z,8.49
2019-03-22T22:39:09.812Z,8.72
2019-03-22T22:44:31.262Z,8.64
2019-03-22T22:49:53.101Z,8.81
2019-03-22T22:55:14.718Z,8.56
2019-03-22T23:00:36.445Z,8.53
2019-03-22T23:06:09.109Z,8.31
2019-03-22T23:11:22.357Z,8.28
2019-03-22T23:16:44.171Z,8.13
2019-03-22T23:22:05.761Z,8.07
2019-03-22T23:27:27.373Z,8.05
2019-03-22T23:32:49.277Z,8.29
2019-03-22T23:38:11.722Z,8.47
2019-03-22T23:43:33.594Z,8.70
2019-03-22T23:48:55.395Z,8.62
2019-03-22T23:54:17.078Z,8.69
2019-03-22T23:59:39.196Z,8.83
